Time;durP1;ratioP1;P1;durP2;ratioP2;P2;SDS_P1;SDS_P2;PMS_P1;PMS_P2;Temp;Humidity;BMP_temperature;BMP_pressure;BME280_temperature;BME280_humidity;BME280_pressure;Samples;Min_cycle;Max_cycle;Signal;HPM_P1;HPM_P2
2023/10/02 00:01:06;;;;;;;19.60;8.00;;;12.50;99.90;;;13.50;100.00;98810.97;4999765;28;20466;-80
2023/10/02 00:03:42;;;;;;;18.03;8.30;;;12.40;99.90;;;13.45;100.00;98806.25;4999523;28;20970;-79
2023/10/02 00:06:16;;;;;;;22.80;6.93;;;12.50;99.90;;;13.41;100.00;98801.56;4999756;28;20475;-80
2023/10/02 00:08:51;;;;;;;15.73;7.03;;;12.40;99.90;;;13.40;100.00;98806.00;5000371;28;20466;-80
2023/10/02 00:11:40;;;;;;;11.07;5.83;;;12.40;99.90;;;13.39;100.00;98800.94;5000312;28;20489;-80
2023/10/02 00:14:21;;;;;;;16.50;7.23;;;12.40;99.90;;;13.33;100.00;98804.31;5000688;28;20470;-80
2023/10/02 00:17:00;;;;;;;15.97;7.20;;;12.40;99.90;;;13.29;100.00;98809.13;4999903;28;20494;-80
2023/10/02 00:19:35;;;;;;;13.83;7.00;;;12.30;99.90;;;13.21;100.00;98801.34;5002182;28;20462;-79
2023/10/02 00:22:09;;;;;;;19.40;7.53;;;12.30;99.90;;;13.25;100.00;98807.88;5003040;28;20458;-79
2023/10/02 00:24:45;;;;;;;14.43;7.23;;;12.20;99.90;;;13.24;100.00;98814.13;5002014;28;20464;-79
2023/10/02 00:27:15;;;;;;;16.20;7.60;;;12.20;99.90;;;13.19;100.00;98813.84;5002747;28;21083;-80
2023/10/02 00:29:52;;;;;;;15.30;6.73;;;12.20;99.90;;;13.19;100.00;98808.59;5003722;28;20497;-80
2023/10/02 00:32:26;;;;;;;14.97;6.10;;;12.10;99.90;;;13.20;100.00;98815.47;5002693;28;20462;-80
2023/10/02 00:34:58;;;;;;;18.50;7.10;;;12.00;99.90;;;13.14;100.00;98807.53;5003297;28;20863;-79
2023/10/02 00:37:43;;;;;;;16.50;7.20;;;12.20;99.90;;;13.13;100.00;98801.44;5000685;28;21444;-79
2023/10/02 00:40:20;;;;;;;16.03;6.80;;;12.10;99.90;;;13.13;100.00;98804.09;5000365;28;20462;-79
2023/10/02 00:42:54;;;;;;;15.00;7.00;;;12.00;99.90;;;13.13;100.00;98804.09;5000773;28;20458;-79
2023/10/02 00:45:29;;;;;;;15.33;6.37;;;11.90;99.90;;;13.14;100.00;98804.91;4999993;28;20486;-79
2023/10/02 00:50:50;;;;;;;14.40;6.40;;;12.10;99.90;;;13.07;100.00;98791.66;4999118;28;20577;-80
2023/10/02 00:53:28;;;;;;;17.40;6.57;;;12.10;99.90;;;13.10;100.00;98801.81;4998603;28;20962;-80
2023/10/02 00:56:01;;;;;;;15.80;6.63;;;12.00;99.90;;;13.05;100.00;98804.19;4999174;28;20822;-80
2023/10/02 00:58:31;;;;;;;17.20;7.30;;;12.00;99.90;;;13.02;100.00;98797.47;4999020;28;21089;-80
2023/10/02 01:01:02;;;;;;;16.07;6.80;;;12.00;99.90;;;13.00;100.00;98793.41;4999360;28;20467;-79
2023/10/02 01:04:07;;;;;;;19.07;6.10;;;12.00;99.90;;;12.95;100.00;98796.56;4997982;28;20951;-80
2023/10/02 01:06:24;;;;;;;14.57;6.20;;;12.00;99.90;;;12.96;100.00;98792.13;4998379;28;20467;-80
2023/10/02 01:08:59;;;;;;;19.77;7.10;;;12.00;99.90;;;12.96;100.00;98790.31;4998288;28;20469;-79
2023/10/02 01:11:30;;;;;;;15.83;6.43;;;12.00;99.90;;;12.92;100.00;98790.88;4997769;28;20526;-80
2023/10/02 01:14:03;;;;;;;21.40;7.07;;;12.00;99.90;;;12.92;100.00;98796.13;4999828;28;20483;-80
2023/10/02 01:16:36;;;;;;;16.97;6.70;;;12.00;99.90;;;12.85;100.00;98789.97;4999602;28;20492;-80
2023/10/02 01:19:11;;;;;;;14.80;6.07;;;12.00;99.90;;;12.87;100.00;98788.00;5001275;28;20486;-79
2023/10/02 01:21:44;;;;;;;16.10;6.60;;;12.00;99.90;;;12.87;100.00;98793.25;5000213;28;20462;-80
2023/10/02 01:24:17;;;;;;;14.53;6.10;;;11.90;99.90;;;12.82;100.00;98787.72;5000970;28;20463;-79
2023/10/02 01:26:50;;;;;;;13.80;6.47;;;11.90;99.90;;;12.84;100.00;98788.34;5000910;28;20463;-79
2023/10/02 01:29:22;;;;;;;16.10;6.87;;;11.90;99.90;;;12.82;100.00;98787.72;5000873;28;20459;-80
2023/10/02 01:31:53;;;;;;;13.77;6.23;;;11.90;99.90;;;12.82;100.00;98790.34;4999479;28;20468;-79
2023/10/02 01:34:34;;;;;;;18.87;6.60;;;11.80;99.90;;;12.76;100.00;98791.06;5000202;28;20471;-80
2023/10/02 01:37:32;;;;;;;15.57;6.10;;;11.80;99.90;;;12.81;100.00;98788.69;4997015;28;20545;-80
2023/10/02 01:40:28;;;;;;;13.10;6.10;;;11.70;99.90;;;12.79;100.00;98798.56;5000162;28;20460;-79
2023/10/02 01:42:47;;;;;;;10.97;6.27;;;11.70;99.90;;;12.74;100.00;98782.59;4998909;28;20469;-80
2023/10/02 01:45:18;;;;;;;10.73;5.70;;;11.70;99.90;;;12.73;100.00;98783.56;4998719;28;20459;-79
2023/10/02 01:47:49;;;;;;;14.40;6.13;;;11.70;99.90;;;12.75;100.00;98784.19;4997484;28;20466;-79
2023/10/02 01:50:19;;;;;;;13.77;6.00;;;11.60;99.90;;;12.76;100.00;98784.00;4997879;28;20977;-80
2023/10/02 01:52:49;;;;;;;13.80;6.50;;;11.60;99.90;;;12.75;100.00;98778.94;5000032;28;20469;-80
2023/10/02 01:55:29;;;;;;;13.70;6.47;;;11.70;99.90;;;12.75;100.00;98774.50;4998618;28;20698;-79
2023/10/02 01:58:16;;;;;;;21.00;7.13;;;11.60;99.90;;;12.71;100.00;98773.25;4996560;28;20979;-80
2023/10/02 02:00:46;;;;;;;17.17;7.83;;;11.70;99.90;;;12.71;100.00;98773.25;4998047;28;20459;-79
2023/10/02 02:03:17;;;;;;;16.20;5.93;;;11.70;99.90;;;12.68;100.00;98778.03;4999224;28;20471;-80
2023/10/02 02:05:49;;;;;;;14.67;6.27;;;11.70;99.90;;;12.66;100.00;98773.00;4996565;28;20485;-80
2023/10/02 02:08:23;;;;;;;15.00;6.43;;;11.70;99.90;;;12.65;100.00;98773.97;4999103;28;20474;-80
2023/10/02 02:11:14;;;;;;;17.40;6.20;;;11.70;99.90;;;12.67;100.00;98781.69;4998465;28;20478;-80
2023/10/02 02:13:49;;;;;;;12.43;5.80;;;11.70;99.90;;;12.68;100.00;98776.22;4998321;28;20467;-79
2023/10/02 02:16:25;;;;;;;17.17;6.80;;;11.50;99.90;;;12.67;100.00;98774.59;4997440;28;20486;-79
2023/10/02 02:18:55;;;;;;;18.97;6.00;;;11.60;99.90;;;12.60;100.00;98773.69;4999435;28;20487;-80
2023/10/02 02:21:28;;;;;;;14.27;5.90;;;11.50;99.90;;;12.54;100.00;98777.06;4998502;28;20466;-79
2023/10/02 02:24:07;;;;;;;16.53;6.17;;;11.50;99.90;;;12.50;100.00;98771.34;4999703;28;20463;-79
2023/10/02 02:26:40;;;;;;;18.93;5.93;;;11.50;99.90;;;12.48;100.00;98773.34;4998083;28;20459;-80
2023/10/02 02:29:23;;;;;;;16.60;8.50;;;11.50;99.90;;;12.47;100.00;98776.97;4999184;28;20470;-80
2023/10/02 02:31:54;;;;;;;19.63;6.50;;;11.60;99.90;;;12.51;100.00;98777.41;4998866;28;20501;-79
2023/10/02 02:34:26;;;;;;;15.70;6.43;;;11.50;99.90;;;12.46;100.00;98771.91;4999847;28;20461;-80
2023/10/02 02:36:57;;;;;;;15.70;6.10;;;11.50;99.90;;;12.39;100.00;98774.41;4996270;28;20455;-80
2023/10/02 02:39:27;;;;;;;13.60;5.70;;;11.50;99.90;;;12.39;100.00;98773.63;4999000;28;20506;-80
2023/10/02 02:42:22;;;;;;;14.47;6.07;;;11.40;99.90;;;12.42;100.00;98773.25;4997715;28;20486;-80
2023/10/02 02:44:51;;;;;;;23.10;7.73;;;11.30;99.90;;;12.37;100.00;98768.56;4999281;28;20478;-80
2023/10/02 02:47:21;;;;;;;12.63;6.20;;;11.30;99.90;;;12.35;100.00;98769.72;4998014;28;20460;-80
2023/10/02 02:49:58;;;;;;;15.17;6.13;;;11.30;99.90;;;12.39;100.00;98771.78;4999112;28;20542;-79
2023/10/02 02:52:32;;;;;;;12.33;6.07;;;11.40;99.90;;;12.40;100.00;98770.00;4999867;28;20844;-79
2023/10/02 02:55:12;;;;;;;12.93;6.57;;;11.30;99.90;;;12.37;100.00;98771.16;4997850;28;20479;-81
2023/10/02 02:57:45;;;;;;;15.20;6.30;;;11.30;99.90;;;12.37;100.00;98771.16;4997586;28;20555;-79
2023/10/02 03:00:31;;;;;;;14.73;5.50;;;11.20;99.90;;;12.33;100.00;98767.28;4997579;28;20490;-79
2023/10/02 03:03:29;;;;;;;15.10;6.57;;;11.30;99.90;;;12.31;100.00;98771.09;4996791;28;20986;-79
2023/10/02 03:05:58;;;;;;;16.43;6.50;;;11.30;99.90;;;12.23;100.00;98768.53;4995668;28;20474;-79
2023/10/02 03:08:37;;;;;;;13.20;6.67;;;11.30;99.90;;;12.27;100.00;98775.88;5000499;28;20470;-79
2023/10/02 03:11:08;;;;;;;15.53;6.13;;;11.20;99.90;;;12.25;100.00;98771.81;5001897;28;20478;-80
2023/10/02 03:13:40;;;;;;;11.37;5.50;;;11.20;99.90;;;12.19;100.00;98772.50;5003195;28;20463;-80
2023/10/02 03:16:16;;;;;;;15.57;5.70;;;11.20;99.90;;;12.10;100.00;98771.78;5001471;28;21008;-79
2023/10/02 03:18:48;;;;;;;14.00;5.80;;;11.30;99.90;;;12.16;100.00;98776.31;5002665;28;20537;-80
2023/10/02 03:21:23;;;;;;;18.90;6.13;;;11.20;99.90;;;12.15;100.00;98777.28;5002049;28;20994;-80
2023/10/02 03:23:54;;;;;;;15.10;6.50;;;11.10;99.90;;;12.13;100.00;98776.66;5002651;28;20458;-79
2023/10/02 03:26:37;;;;;;;14.90;6.23;;;11.10;99.90;;;12.06;100.00;98773.13;5001188;28;20478;-80
2023/10/02 03:29:16;;;;;;;11.63;5.97;;;11.10;99.90;;;12.03;100.00;98778.72;5002790;28;20549;-80
2023/10/02 03:31:50;;;;;;;14.17;5.90;;;11.10;99.90;;;11.99;100.00;98778.28;5001956;28;20474;-79
2023/10/02 03:34:33;;;;;;;15.87;6.43;;;11.10;99.90;;;11.90;100.00;98774.09;5001654;28;20469;-79
2023/10/02 03:37:13;;;;;;;19.63;7.20;;;11.10;99.90;;;11.99;100.00;98766.97;5001123;28;20551;-79
2023/10/02 03:40:13;;;;;;;17.73;6.27;;;11.00;99.90;;;11.99;100.00;98766.97;5001405;28;21100;-80
2023/10/02 03:42:42;;;;;;;13.90;5.83;;;11.10;99.90;;;11.98;100.00;98766.16;5001585;28;20837;-79
2023/10/02 03:45:14;;;;;;;15.57;6.20;;;11.00;99.90;;;11.98;100.00;98765.34;5000178;28;20466;-80
2023/10/02 03:47:45;;;;;;;15.53;6.50;;;11.10;99.90;;;11.97;100.00;98763.72;5000598;28;20462;-80
2023/10/02 03:50:16;;;;;;;12.03;5.83;;;11.00;99.90;;;11.93;100.00;98765.06;5000234;28;20517;-79
2023/10/02 03:53:12;;;;;;;17.23;6.10;;;10.90;99.90;;;11.96;100.00;98755.03;5002301;28;20462;-79
2023/10/02 03:55:36;;;;;;;18.47;5.77;;;10.90;99.90;;;11.97;100.00;98758.47;4999840;28;20494;-79
2023/10/02 03:58:06;;;;;;;18.10;5.77;;;10.80;99.90;;;11.96;100.00;98762.09;5000062;28;20459;-79
2023/10/02 04:00:43;;;;;;;12.63;6.13;;;10.80;99.90;;;11.94;100.00;98758.84;5003130;28;20494;-80
2023/10/02 04:03:14;;;;;;;9.93;5.73;;;10.80;99.90;;;11.94;100.00;98758.84;5001109;28;20477;-79
2023/10/02 04:05:45;;;;;;;10.30;5.37;;;10.90;99.90;;;11.94;100.00;98761.47;4999644;28;20853;-80
2023/10/02 04:08:24;;;;;;;15.03;6.53;;;10.90;99.90;;;11.90;100.00;98763.63;5000649;28;20459;-79
2023/10/02 04:11:02;;;;;;;26.57;7.50;;;10.70;99.90;;;11.91;100.00;98760.00;5000439;28;20455;-80
2023/10/02 04:13:39;;;;;;;14.10;5.60;;;10.80;99.90;;;11.88;100.00;98762.16;5000865;28;20466;-80
2023/10/02 04:16:29;;;;;;;14.77;5.83;;;10.70;99.90;;;11.80;100.00;98751.75;5001360;28;20486;-80
2023/10/02 04:19:02;;;;;;;16.33;6.03;;;10.80;99.90;;;11.86;100.00;98758.91;4999594;28;20490;-79
2023/10/02 04:21:33;;;;;;;14.60;6.30;;;10.80;99.90;;;11.78;100.00;98749.31;4999283;28;20471;-79
2023/10/02 04:24:09;;;;;;;17.10;6.63;;;10.80;99.90;;;11.79;100.00;98757.97;4999699;28;20475;-79
2023/10/02 04:26:41;;;;;;;14.70;5.00;;;10.80;99.90;;;11.80;100.00;98751.75;4999224;28;20839;-80
2023/10/02 04:29:25;;;;;;;20.00;6.70;;;10.80;99.90;;;11.81;100.00;98753.38;4998577;28;20463;-79
2023/10/02 04:32:15;;;;;;;18.00;6.10;;;10.70;99.90;;;11.79;100.00;98750.13;4998212;28;20503;-80
2023/10/02 04:34:50;;;;;;;18.17;6.53;;;10.70;99.90;;;11.75;100.00;98746.22;4998854;28;20486;-79
2023/10/02 04:37:20;;;;;;;19.10;5.93;;;10.70;99.90;;;11.70;100.00;98751.16;4998547;28;20505;-79
2023/10/02 04:40:13;;;;;;;18.00;5.97;;;10.70;99.90;;;11.71;100.00;98752.81;4999823;28;20499;-80
2023/10/02 04:43:19;;;;;;;21.23;6.70;;;10.60;99.90;;;11.68;100.00;98755.75;5000427;28;21413;-79
2023/10/02 04:45:48;;;;;;;17.27;6.20;;;10.70;99.90;;;11.65;100.00;98758.72;5002021;28;20459;-80
2023/10/02 04:48:25;;;;;;;15.43;5.83;;;10.60;99.90;;;11.65;100.00;98758.72;5001606;28;20459;-80
2023/10/02 04:50:56;;;;;;;16.40;6.10;;;10.60;99.90;;;11.68;100.00;98758.38;5001005;28;20502;-79
2023/10/02 04:53:25;;;;;;;14.80;6.60;;;10.70;99.90;;;11.65;100.00;98754.31;5001918;28;20473;-80
2023/10/02 04:56:13;;;;;;;13.13;6.00;;;10.60;99.90;;;11.62;100.00;98759.91;5003105;28;21139;-80
2023/10/02 04:58:49;;;;;;;14.30;6.73;;;10.60;99.90;;;11.61;100.00;98759.06;4999285;28;21099;-79
2023/10/02 05:01:28;;;;;;;14.37;6.17;;;10.60;99.90;;;11.57;100.00;98757.78;4996504;28;20463;-79
2023/10/02 05:04:03;;;;;;;14.10;6.67;;;10.60;99.90;;;11.56;100.00;98756.16;4997501;28;20982;-80
2023/10/02 05:06:42;;;;;;;13.83;5.97;;;10.50;99.90;;;11.59;100.00;98753.19;4998866;28;20463;-80
2023/10/02 05:09:19;;;;;;;11.97;5.77;;;10.60;99.90;;;11.50;100.00;98756.88;4997987;28;20666;-79
2023/10/02 05:11:52;;;;;;;24.00;6.97;;;10.60;99.90;;;11.55;100.00;98759.78;4995335;28;20459;-79
2023/10/02 05:14:26;;;;;;;11.93;5.67;;;10.50;99.90;;;11.52;100.00;98760.09;4997257;28;20471;-79
2023/10/02 05:17:16;;;;;;;11.27;5.00;;;10.50;99.90;;;11.53;100.00;98767.00;4994757;28;20482;-79
2023/10/02 05:20:03;;;;;;;16.57;5.90;;;10.50;99.90;;;11.56;100.00;98756.16;4994944;28;21177;-80
2023/10/02 05:22:33;;;;;;;15.90;5.43;;;10.50;99.90;;;11.52;100.00;98761.94;4998543;28;20466;-81
2023/10/02 05:25:05;;;;;;;10.83;5.40;;;10.50;99.90;;;11.44;100.00;98762.81;4996916;28;20495;-80
2023/10/02 05:27:38;;;;;;;15.77;5.30;;;10.30;99.90;;;11.42;100.00;98753.50;4998295;28;20493;-81
2023/10/02 05:30:13;;;;;;;16.10;6.00;;;10.30;99.90;;;11.42;100.00;98763.97;4995620;28;20471;-80
2023/10/02 05:32:46;;;;;;;12.63;5.97;;;10.30;99.90;;;11.43;100.00;98760.34;4996712;28;20519;-80
2023/10/02 05:35:18;;;;;;;13.80;6.67;;;10.30;99.90;;;11.41;100.00;98762.34;4996744;28;20549;-81
2023/10/02 05:37:51;;;;;;;14.53;6.17;;;10.30;99.90;;;11.44;100.00;98762.81;4998578;28;20463;-77
2023/10/02 05:40:39;;;;;;;12.70;6.03;;;10.40;99.90;;;11.42;100.00;98770.00;4996138;28;20522;-80
2023/10/02 05:43:12;;;;;;;17.07;6.10;;;10.30;99.90;;;11.37;100.00;98774.97;4996377;28;20475;-79
2023/10/02 05:45:47;;;;;;;12.40;5.30;;;10.40;99.90;;;11.31;100.00;98773.06;4999446;28;20533;-80
2023/10/02 05:48:27;;;;;;;21.70;6.00;;;10.20;99.90;;;11.28;100.00;98781.22;4997634;28;20521;-79
2023/10/02 05:51:09;;;;;;;14.97;6.00;;;10.30;99.90;;;11.29;100.00;98775.00;5000267;28;21057;-79
2023/10/02 05:53:53;;;;;;;12.23;5.47;;;10.20;99.90;;;11.24;100.00;98781.75;4999108;28;20459;-78
2023/10/02 05:56:25;;;;;;;26.50;6.67;;;10.30;99.90;;;11.30;100.00;98774.03;4999780;28;20566;-80
2023/10/02 05:58:59;;;;;;;15.13;6.07;;;10.30;99.90;;;11.31;100.00;98773.06;4998288;28;20470;-80
2023/10/02 06:01:34;;;;;;;15.60;5.60;;;10.30;99.90;;;11.36;100.00;98780.38;4999102;28;20493;-80
2023/10/02 06:04:05;;;;;;;16.60;6.57;;;10.30;99.90;;;11.36;100.00;98775.94;4998478;28;20993;-79
2023/10/02 06:06:37;;;;;;;11.33;5.80;;;10.30;99.90;;;11.34;100.00;98783.19;4997404;28;20463;-79
2023/10/02 06:09:14;;;;;;;19.50;7.20;;;10.40;99.90;;;11.30;100.00;98779.25;4998661;28;20573;-80
2023/10/02 06:12:02;;;;;;;9.47;5.10;;;10.30;99.90;;;11.27;100.00;98773.56;4996724;28;20849;-80
2023/10/02 06:14:38;;;;;;;18.10;6.70;;;10.20;99.90;;;11.31;100.00;98780.09;5000909;28;21032;-80
2023/10/02 06:17:11;;;;;;;11.93;4.90;;;10.20;99.90;;;11.29;100.00;98775.00;4998711;28;20592;-79
2023/10/02 06:19:44;;;;;;;15.67;6.20;;;10.20;99.90;;;11.29;100.00;98779.44;4996636;28;20514;-79
2023/10/02 06:22:15;;;;;;;13.67;5.70;;;10.20;99.90;;;11.29;100.00;98782.03;4998602;28;20466;-79
2023/10/02 06:24:45;;;;;;;13.60;5.37;;;10.20;99.90;;;11.30;100.00;98776.66;4997522;28;20848;-80
2023/10/02 06:27:17;;;;;;;12.27;5.70;;;10.30;99.90;;;11.30;100.00;98771.41;4996633;28;20471;-80
2023/10/02 06:29:48;;;;;;;11.33;6.23;;;10.30;99.90;;;11.31;100.00;98777.47;4994794;28;21068;-79
2023/10/02 06:32:20;;;;;;;15.50;5.90;;;10.20;99.90;;;11.34;100.00;98779.72;4994529;28;20475;-79
2023/10/02 06:34:50;;;;;;;10.17;5.30;;;10.30;99.90;;;11.39;100.00;98783.44;4995646;28;20492;-80
2023/10/02 06:37:30;;;;;;;12.60;5.23;;;10.30;99.90;;;11.40;100.00;98777.22;4994665;28;20460;-80
2023/10/02 06:40:04;;;;;;;15.37;6.53;;;10.30;99.90;;;11.39;100.00;98780.84;4998656;28;20478;-80
2023/10/02 06:42:34;;;;;;;13.70;6.77;;;10.40;99.90;;;11.41;100.00;98780.66;4996821;28;20509;-80
2023/10/02 06:45:15;;;;;;;16.93;6.60;;;10.40;99.90;;;11.40;100.00;98781.66;5000026;28;20471;-79
2023/10/02 06:47:48;;;;;;;16.60;6.07;;;10.40;99.90;;;11.42;100.00;98784.94;5001735;28;20462;-79
2023/10/02 06:50:27;;;;;;;16.27;5.73;;;10.50;99.90;;;11.45;100.00;98774.88;5003354;28;20458;-79
2023/10/02 06:53:00;;;;;;;15.03;6.17;;;10.40;99.90;;;11.51;100.00;98773.41;5000713;28;20459;-80
2023/10/02 06:55:32;;;;;;;12.17;5.53;;;10.50;99.90;;;11.55;100.00;98774.69;5001742;28;20562;-80
2023/10/02 06:58:02;;;;;;;15.43;5.80;;;10.50;99.90;;;11.59;100.00;98775.97;4998334;28;20504;-80
2023/10/02 07:00:54;;;;;;;16.83;6.53;;;10.60;99.90;;;11.60;100.00;98773.16;5000934;28;20501;-80
2023/10/02 07:03:25;;;;;;;14.47;6.00;;;10.60;99.90;;;11.61;100.00;98772.16;4999553;28;20475;-80
2023/10/02 07:05:54;;;;;;;12.73;5.57;;;10.60;99.90;;;11.65;100.00;98779.69;4999274;28;20478;-80
2023/10/02 07:08:30;;;;;;;22.73;7.00;;;10.60;99.90;;;11.67;100.00;98777.69;5000385;28;20469;-79
2023/10/02 07:11:01;;;;;;;18.10;6.63;;;10.70;99.90;;;11.70;100.00;98770.28;4997934;28;20510;-79
2023/10/02 07:13:31;;;;;;;11.87;5.73;;;10.70;99.90;;;11.76;100.00;98781.91;4997866;28;20479;-79
2023/10/02 07:16:06;;;;;;;15.50;5.67;;;10.80;99.90;;;11.81;100.00;98777.78;4999752;28;20577;-80
2023/10/02 07:18:37;;;;;;;13.07;5.60;;;10.90;99.90;;;11.85;100.00;98775.59;5001557;28;20969;-81
2023/10/02 07:21:08;;;;;;;17.00;6.00;;;10.90;99.90;;;11.89;100.00;98771.66;4999404;28;21429;-80
2023/10/02 07:23:39;;;;;;;16.53;5.70;;;11.00;99.90;;;11.95;100.00;98774.38;5001112;28;20467;-79
2023/10/02 07:26:16;;;;;;;14.43;5.83;;;11.00;99.90;;;11.98;100.00;98776.63;4999174;28;20822;-79
2023/10/02 07:28:51;;;;;;;11.77;5.33;;;11.10;99.90;;;12.02;100.00;98771.84;4999811;28;20501;-79
2023/10/02 07:31:22;;;;;;;14.50;6.00;;;11.10;99.90;;;12.06;100.00;98762.63;5000565;28;20470;-79
2023/10/02 07:33:55;;;;;;;18.13;7.10;;;11.10;99.90;;;12.09;100.00;98765.72;5001608;28;21060;-79
2023/10/02 07:36:27;;;;;;;11.97;5.60;;;11.20;99.90;;;12.15;100.00;98771.25;5000578;28;20463;-79
2023/10/02 07:39:00;;;;;;;18.40;5.83;;;11.20;99.90;;;12.19;100.00;98768.06;5000698;28;20474;-79
2023/10/02 07:41:31;;;;;;;9.47;4.80;;;11.30;99.90;;;12.20;100.00;98764.47;4999077;28;20490;-80
2023/10/02 07:44:08;;;;;;;12.43;5.47;;;11.30;99.90;;;12.25;100.00;98769.19;5001088;28;20459;-79
2023/10/02 07:46:40;;;;;;;18.20;7.90;;;11.30;99.90;;;12.27;100.00;98764.56;4998456;28;20477;-79
2023/10/02 07:49:10;;;;;;;15.63;6.57;;;11.30;99.90;;;12.31;100.00;98766.66;4998829;28;20469;-79
2023/10/02 07:51:40;;;;;;;18.60;6.67;;;11.40;99.90;;;12.36;100.00;98771.34;4998776;28;20460;-79
2023/10/02 07:54:13;;;;;;;16.67;6.80;;;11.40;99.90;;;12.41;100.00;98761.97;5000878;28;20456;-79
2023/10/02 07:56:47;;;;;;;10.50;5.43;;;11.50;99.90;;;12.46;100.00;98771.91;5000866;28;20469;-79
2023/10/02 07:59:18;;;;;;;14.40;5.90;;;11.50;99.90;;;12.49;100.00;98759.25;5000760;28;20459;-79
2023/10/02 08:01:51;;;;;;;16.87;6.77;;;11.60;99.90;;;12.55;100.00;98763.75;4997456;28;20570;-79
2023/10/02 08:04:44;;;;;;;16.30;7.27;;;11.60;99.90;;;12.61;100.00;98763.03;5000158;28;20974;-79
2023/10/02 08:07:11;;;;;;;14.10;6.23;;;11.70;99.90;;;12.65;100.00;98768.72;5001764;28;20467;-79
2023/10/02 08:09:57;;;;;;;18.93;7.07;;;11.70;99.90;;;12.71;100.00;98768.00;5000143;28;21165;-80
2023/10/02 08:12:34;;;;;;;14.93;7.37;;;11.80;99.90;;;12.78;100.00;98768.88;4996688;28;20506;-79
2023/10/02 08:15:26;;;;;;;15.30;6.40;;;11.90;99.90;;;12.83;100.00;98766.53;4998351;28;20950;-80
2023/10/02 08:18:14;;;;;;;14.20;6.57;;;11.90;99.90;;;12.89;100.00;98770.22;5001551;28;20980;-80
2023/10/02 08:20:45;;;;;;;12.83;5.47;;;12.00;99.90;;;12.95;100.00;98764.25;5000727;28;20466;-80
2023/10/02 08:23:23;;;;;;;14.53;5.43;;;12.20;99.90;;;12.99;100.00;98760.25;5002284;28;20463;-80
2023/10/02 08:26:02;;;;;;;14.13;6.00;;;12.20;99.90;;;13.06;100.00;98763.78;5001204;28;20878;-80
2023/10/02 08:28:35;;;;;;;12.03;6.27;;;12.30;99.90;;;13.13;100.00;98766.50;5002837;28;20458;-80
2023/10/02 08:31:13;;;;;;;11.10;5.60;;;12.30;99.90;;;13.17;100.00;98767.75;5002697;28;20472;-80
2023/10/02 08:33:44;;;;;;;15.10;5.73;;;12.40;99.90;;;13.24;100.00;98760.75;5001587;28;20459;-80
2023/10/02 08:36:30;;;;;;;15.23;6.27;;;12.50;99.90;;;13.28;100.00;98762.03;5001710;28;20481;-79
2023/10/02 08:39:00;;;;;;;13.10;6.33;;;12.50;99.90;;;13.34;100.00;98758.66;5002682;28;20479;-80
2023/10/02 08:41:51;;;;;;;12.80;6.47;;;12.60;99.90;;;13.40;100.00;98755.25;5000536;28;20501;-79
2023/10/02 08:44:22;;;;;;;12.50;5.97;;;12.70;99.90;;;13.46;100.00;98757.97;5001369;28;20470;-80
2023/10/02 08:46:56;;;;;;;16.70;5.87;;;12.70;99.90;;;13.54;100.00;98754.38;5001024;28;20466;-80
2023/10/02 08:49:30;;;;;;;17.13;6.40;;;12.80;99.90;;;13.59;100.00;98750.22;5002557;28;20890;-80
2023/10/02 08:52:03;;;;;;;13.40;5.87;;;12.90;99.90;;;13.65;100.00;98748.63;5000548;28;20986;-80
2023/10/02 08:54:39;;;;;;;14.20;6.07;;;13.00;99.90;;;13.74;100.00;98741.44;5002785;28;20539;-80
2023/10/02 08:57:11;;;;;;;16.97;6.73;;;13.00;99.90;;;13.80;100.00;98743.31;5002059;28;20494;-79
2023/10/02 08:59:42;;;;;;;12.50;5.73;;;13.10;99.90;;;13.85;100.00;98743.56;5001325;28;20462;-80
2023/10/02 09:02:14;;;;;;;17.77;6.50;;;13.10;99.90;;;13.91;100.00;98745.41;5000294;28;20507;-79
2023/10/02 09:05:11;;;;;;;16.10;5.67;;;13.20;99.90;;;13.97;100.00;98748.09;4999799;28;20526;-80
2023/10/02 09:08:00;;;;;;;12.77;6.10;;;13.30;99.90;;;14.03;100.00;98736.81;4998911;28;20490;-80
2023/10/02 09:10:35;;;;;;;15.50;5.47;;;13.40;99.90;;;14.12;100.00;98742.75;5001188;28;20477;-79
2023/10/02 09:13:20;;;;;;;12.88;6.40;;;13.40;99.90;;;14.20;100.00;98737.31;5000171;28;20454;-80
2023/10/02 09:15:53;;;;;;;12.73;5.87;;;13.50;99.90;;;14.29;100.00;98732.72;4994079;28;20216;-80
2023/10/02 09:18:34;;;;;;;12.60;6.87;;;13.60;99.90;;;14.36;100.00;98728.34;4995518;28;20464;-80
2023/10/02 09:21:15;;;;;;;66.40;32.97;;;13.70;99.90;;;14.43;100.00;98729.19;4997498;28;20460;-80
2023/10/02 09:23:51;;;;;;;51.10;25.10;;;13.80;99.90;;;14.50;100.00;98722.16;4998257;28;20472;-79
2023/10/02 09:26:24;;;;;;;17.03;7.40;;;13.90;99.90;;;14.56;100.00;98722.19;4995525;28;20993;-80
2023/10/02 09:29:05;;;;;;;15.73;7.03;;;14.00;99.90;;;14.69;100.00;98723.22;4996348;28;20467;-81
2023/10/02 09:31:51;;;;;;;16.37;7.30;;;14.10;99.90;;;14.77;100.00;98720.44;4998425;28;20506;-80
2023/10/02 09:34:26;;;;;;;13.17;6.00;;;14.20;99.90;;;14.85;100.00;98715.00;4999083;28;20464;-79
2023/10/02 09:37:26;;;;;;;14.30;6.83;;;14.30;99.90;;;14.95;100.00;98711.00;4997723;28;20946;-80
2023/10/02 09:40:16;;;;;;;21.97;8.40;;;14.50;99.90;;;15.09;100.00;98707.38;4996090;28;20462;-80
2023/10/02 09:43:00;;;;;;;22.60;9.17;;;14.60;99.90;;;15.21;100.00;98710.22;4996946;28;20495;-79
2023/10/02 09:45:37;;;;;;;21.50;10.17;;;14.70;99.90;;;15.32;100.00;98699.09;4995321;28;20497;-80
2023/10/02 09:48:46;;;;;;;110.67;58.33;;;14.80;99.90;;;15.40;100.00;98706.81;4997453;28;20495;-78
2023/10/02 09:51:06;;;;;;;26.50;9.17;;;14.90;99.90;;;15.69;100.00;98696.94;4998550;28;20463;-80
2023/10/02 09:54:02;;;;;;;17.50;7.50;;;15.10;99.90;;;15.75;100.00;98698.75;4997242;28;21009;-79
2023/10/02 09:56:53;;;;;;;41.73;18.23;;;15.30;99.90;;;15.85;100.00;98693.88;4998333;28;20463;-80
2023/10/02 09:59:24;;;;;;;34.87;14.03;;;15.40;99.90;;;15.93;100.00;98694.44;4997189;28;21076;-80
2023/10/02 10:05:46;;;;;;;20.40;8.60;;;15.60;99.90;;;16.21;100.00;98688.13;4993513;28;20501;-79
2023/10/02 10:08:19;;;;;;;19.80;7.60;;;15.70;99.90;;;16.30;100.00;98689.53;4999681;28;20471;-80
2023/10/02 10:10:52;;;;;;;24.97;7.77;;;15.90;99.90;;;16.50;100.00;98683.16;4998902;28;20521;-80
2023/10/02 10:13:27;;;;;;;18.70;8.60;;;16.00;99.90;;;16.59;100.00;98681.91;4999029;28;20473;-80
2023/10/02 10:16:38;;;;;;;22.90;7.60;;;16.10;99.90;;;16.69;100.00;98678.03;4999565;28;20549;-80
2023/10/02 10:19:26;;;;;;;21.93;8.03;;;16.30;99.90;;;16.80;100.00;98675.53;4956527;28;21087;-80
2023/10/02 10:22:00;;;;;;;18.17;8.37;;;16.40;99.90;;;16.94;100.00;98674.44;4999125;28;20487;-80
2023/10/02 10:24:51;;;;;;;18.83;8.67;;;16.50;99.90;;;17.00;100.00;98681.53;5000685;28;20467;-80
2023/10/02 10:28:05;;;;;;;21.57;7.70;;;16.60;99.90;;;17.17;100.00;98673.09;4996852;28;20475;-80
2023/10/02 10:30:39;;;;;;;21.33;8.17;;;16.70;99.90;;;17.20;100.00;98667.38;4999308;28;21017;-80
2023/10/02 10:33:40;;;;;;;23.40;9.03;;;16.80;99.90;;;17.31;100.00;98670.16;4998406;28;20545;-80
2023/10/02 10:36:37;;;;;;;17.07;8.10;;;16.90;99.90;;;17.40;100.00;98663.56;5000832;28;20535;-80
2023/10/02 10:39:51;;;;;;;19.57;8.60;;;17.00;99.90;;;17.59;100.00;98664.47;4999950;28;20965;-79
2023/10/02 10:42:23;;;;;;;19.03;6.97;;;17.10;99.90;;;17.71;100.00;98659.25;4997220;28;20494;-79
2023/10/02 10:44:57;;;;;;;18.93;7.83;;;17.20;99.90;;;17.77;100.00;98661.06;4999266;28;20566;-80
2023/10/02 10:47:40;;;;;;;16.30;7.50;;;17.30;99.90;;;17.94;100.00;98664.75;4998013;28;20481;-80
2023/10/02 10:50:14;;;;;;;18.47;7.57;;;17.50;99.90;;;18.17;100.00;98664.91;4998769;28;20471;-80
2023/10/02 10:52:46;;;;;;;19.40;8.93;;;17.60;99.90;;;18.42;100.00;98665.66;4998445;28;20893;-80